Time;durP1;ratioP1;P1;durP2;ratioP2;P2;SDS_P1;SDS_P2;PMS_P1;PMS_P2;Temp;Humidity;BMP_temperature;BMP_pressure;BME280_temperature;BME280_humidity;BME280_pressure;Samples;Min_cycle;Max_cycle;Signal;HPM_P1;HPM_P2
2022/06/15 00:01:07;;;;;;;5.43;5.07;;;;;;;;;;5046558;28;20509;-71
2022/06/15 00:03:36;;;;;;;4.40;3.90;;;;;;;;;;5046218;28;20426;-73
2022/06/15 00:06:10;;;;;;;4.57;3.30;;;;;;;;;;5057824;28;20450;-71
2022/06/15 00:08:36;;;;;;;4.67;3.50;;;;;;;;;;5046580;28;20423;-72
2022/06/15 00:11:07;;;;;;;5.67;4.03;;;;;;;;;;5048295;28;20525;-72
2022/06/15 00:13:33;;;;;;;5.27;4.80;;;;;;;;;;5045659;28;20422;-71
2022/06/15 00:15:59;;;;;;;6.83;4.30;;;;;;;;;;5049081;28;20862;-71
2022/06/15 00:18:28;;;;;;;3.80;3.60;;;;;;;;;;5049302;28;20540;-71
2022/06/15 00:20:54;;;;;;;4.40;4.00;;;;;;;;;;5046616;28;20833;-71
2022/06/15 00:23:20;;;;;;;4.47;4.17;;;;;;;;;;5046850;28;20993;-71
2022/06/15 00:25:50;;;;;;;5.97;3.90;;;;;;;;;;5047954;28;20517;-71
2022/06/15 00:28:16;;;;;;;5.20;3.90;;;;;;;;;;5049570;28;20434;-71
2022/06/15 00:30:42;;;;;;;11.80;3.87;;;;;;;;;;5047073;28;20446;-71
2022/06/15 00:33:08;;;;;;;4.83;4.43;;;;;;;;;;5048294;28;20453;-71
2022/06/15 00:35:34;;;;;;;7.80;3.43;;;;;;;;;;5045729;28;20496;-71
2022/06/15 00:38:00;;;;;;;5.40;4.30;;;;;;;;;;5046954;28;20580;-71
2022/06/15 00:40:26;;;;;;;4.13;3.80;;;;;;;;;;5048931;28;20438;-71
2022/06/15 00:42:52;;;;;;;3.83;3.53;;;;;;;;;;5047956;28;20437;-71
2022/06/15 00:45:18;;;;;;;7.90;3.70;;;;;;;;;;5046271;28;20438;-71
2022/06/15 00:47:45;;;;;;;9.07;4.17;;;;;;;;;;5048474;28;20946;-71
2022/06/15 00:50:19;;;;;;;4.20;3.30;;;;;;;;;;5045341;28;20430;-71
2022/06/15 00:52:54;;;;;;;7.10;3.40;;;;;;;;;;5047032;28;20469;-70
2022/06/15 00:55:25;;;;;;;3.87;3.40;;;;;;;;;;5045442;28;20429;-71
2022/06/15 00:57:52;;;;;;;3.67;3.43;;;;;;;;;;5046789;28;21028;-72
2022/06/15 01:00:19;;;;;;;3.87;3.33;;;;;;;;;;5048425;28;20437;-71
2022/06/15 01:02:45;;;;;;;3.83;3.50;;;;;;;;;;5048788;28;20448;-71
2022/06/15 01:05:17;;;;;;;3.60;3.40;;;;;;;;;;5043655;28;20483;-76
2022/06/15 01:08:11;;;;;;;3.90;3.70;;;;;;;;;;5045806;28;20453;-72
2022/06/15 01:10:49;;;;;;;5.30;4.90;;;;;;;;;;5048367;28;20934;-71
2022/06/15 01:13:18;;;;;;;9.10;3.90;;;;;;;;;;5047228;28;20446;-71
2022/06/15 01:15:55;;;;;;;3.57;3.37;;;;;;;;;;5046752;28;20473;-71
2022/06/15 01:18:35;;;;;;;3.93;3.53;;;;;;;;;;5046687;28;20482;-75
2022/06/15 01:21:07;;;;;;;4.20;3.77;;;;;;;;;;5047585;28;20776;-71
2022/06/15 01:23:52;;;;;;;17.20;4.57;;;;;;;;;;5049832;28;20476;-70
2022/06/15 01:26:18;;;;;;;3.90;3.70;;;;;;;;;;5049072;28;20477;-71
2022/06/15 01:28:44;;;;;;;3.87;3.77;;;;;;;;;;5030412;28;20954;-71
2022/06/15 01:31:30;;;;;;;3.30;3.17;;;;;;;;;;5030069;28;20261;-71
2022/06/15 01:33:56;;;;;;;3.30;3.10;;;;;;;;;;5028544;28;20435;-72
2022/06/15 01:36:41;;;;;;;3.83;3.63;;;;;;;;;;5032360;28;20427;-71
2022/06/15 01:39:07;;;;;;;4.07;3.77;;;;;;;;;;5031253;28;20788;-71
2022/06/15 01:41:36;;;;;;;3.77;3.60;;;;;;;;;;5032495;28;20534;-71
2022/06/15 01:44:21;;;;;;;3.70;3.43;;;;;;;;;;5032559;28;20207;-71
2022/06/15 01:46:47;;;;;;;3.80;3.40;;;;;;;;;;5031750;28;20522;-71
2022/06/15 01:49:18;;;;;;;3.17;3.00;;;;;;;;;;5032103;28;20463;-71
2022/06/15 01:51:44;;;;;;;3.60;3.50;;;;;;;;;;5031627;28;20467;-72
2022/06/15 01:54:21;;;;;;;2.77;2.67;;;;;;;;;;5031578;28;20485;-72
2022/06/15 01:56:48;;;;;;;3.93;3.20;;;;;;;;;;5031263;28;20469;-71
2022/06/15 01:59:36;;;;;;;4.43;4.13;;;;;;;;;;5032520;28;20443;-71
2022/06/15 02:02:15;;;;;;;3.37;3.20;;;;;;;;;;5031235;28;20489;-71
2022/06/15 02:04:45;;;;;;;3.53;3.43;;;;;;;;;;5031537;28;20447;-71
2022/06/15 02:07:18;;;;;;;3.80;3.47;;;;;;;;;;5031846;28;20437;-71
2022/06/15 02:09:55;;;;;;;5.03;3.50;;;;;;;;;;5032612;28;20441;-71
2022/06/15 02:12:24;;;;;;;7.23;3.70;;;;;;;;;;5031526;28;20419;-70
2022/06/15 02:14:52;;;;;;;3.80;3.47;;;;;;;;;;5031200;28;20443;-71
2022/06/15 02:17:23;;;;;;;6.67;3.50;;;;;;;;;;5030243;28;20466;-71
2022/06/15 02:19:51;;;;;;;3.70;3.47;;;;;;;;;;5031168;28;20440;-71
2022/06/15 02:22:20;;;;;;;3.77;3.47;;;;;;;;;;5031569;28;20442;-71
2022/06/15 02:24:47;;;;;;;4.10;3.30;;;;;;;;;;5031578;28;20439;-71
2022/06/15 02:27:14;;;;;;;3.97;3.67;;;;;;;;;;5032004;28;20919;-71
2022/06/15 02:29:41;;;;;;;8.37;3.67;;;;;;;;;;5029843;28;20431;-71
2022/06/15 02:32:08;;;;;;;4.40;3.33;;;;;;;;;;5030614;28;20533;-71
2022/06/15 02:34:34;;;;;;;3.43;3.20;;;;;;;;;;5029667;28;20436;-70
2022/06/15 02:37:00;;;;;;;8.73;5.03;;;;;;;;;;5031864;28;20913;-71
2022/06/15 02:39:26;;;;;;;3.03;2.83;;;;;;;;;;5032152;28;20458;-70
2022/06/15 02:41:59;;;;;;;3.67;3.47;;;;;;;;;;5031169;28;20875;-71
2022/06/15 02:44:27;;;;;;;4.40;4.10;;;;;;;;;;5030321;28;20465;-71
2022/06/15 02:46:54;;;;;;;4.33;3.73;;;;;;;;;;5031381;28;20458;-71
2022/06/15 02:49:20;;;;;;;4.10;3.77;;;;;;;;;;5030972;28;20442;-71
2022/06/15 02:52:05;;;;;;;8.17;3.30;;;;;;;;;;5031162;28;20475;-71
2022/06/15 02:54:41;;;;;;;4.13;3.43;;;;;;;;;;5029510;28;20432;-71
2022/06/15 02:57:07;;;;;;;10.33;4.10;;;;;;;;;;5031027;28;21041;-71
2022/06/15 02:59:33;;;;;;;4.20;4.00;;;;;;;;;;5031184;28;20436;-71
2022/06/15 03:01:59;;;;;;;8.23;3.93;;;;;;;;;;5030667;28;20458;-70
2022/06/15 03:04:25;;;;;;;3.33;3.23;;;;;;;;;;5030151;28;20443;-71
2022/06/15 03:06:51;;;;;;;3.90;3.70;;;;;;;;;;5030838;28;20446;-71
2022/06/15 03:09:17;;;;;;;3.90;3.67;;;;;;;;;;5030818;28;20461;-71
2022/06/15 03:11:45;;;;;;;4.80;3.83;;;;;;;;;;5030735;28;20863;-71
2022/06/15 03:14:13;;;;;;;3.97;3.63;;;;;;;;;;5030266;28;20989;-71
2022/06/15 03:16:43;;;;;;;4.53;4.10;;;;;;;;;;5029721;28;20898;-71
2022/06/15 03:19:09;;;;;;;3.40;3.27;;;;;;;;;;5030781;28;20788;-71
2022/06/15 03:21:35;;;;;;;6.50;3.37;;;;;;;;;;5030524;28;20435;-71
2022/06/15 03:24:01;;;;;;;4.50;4.10;;;;;;;;;;5030772;28;20474;-71
2022/06/15 03:26:27;;;;;;;4.03;3.67;;;;;;;;;;5030828;28;20454;-71
2022/06/15 03:28:53;;;;;;;3.80;3.60;;;;;;;;;;5030901;28;20440;-70
2022/06/15 03:31:19;;;;;;;5.87;3.73;;;;;;;;;;5029416;28;20431;-70
2022/06/15 03:33:45;;;;;;;9.33;3.93;;;;;;;;;;5030669;28;20488;-71
2022/06/15 03:36:11;;;;;;;4.17;3.93;;;;;;;;;;5030385;28;20819;-71
2022/06/15 03:38:37;;;;;;;3.60;3.47;;;;;;;;;;5030796;28;20483;-70
2022/06/15 03:41:03;;;;;;;3.53;3.33;;;;;;;;;;5030557;28;20758;-71
2022/06/15 03:43:29;;;;;;;6.57;3.10;;;;;;;;;;5027907;28;20943;-71
2022/06/15 03:45:56;;;;;;;5.30;3.77;;;;;;;;;;5029375;28;20448;-71
2022/06/15 03:48:22;;;;;;;13.03;3.00;;;;;;;;;;5030513;28;20471;-71
2022/06/15 03:50:48;;;;;;;2.30;2.30;;;;;;;;;;5028213;28;20449;-70
2022/06/15 03:53:14;;;;;;;3.27;2.50;;;;;;;;;;5030236;28;20451;-71
2022/06/15 03:55:41;;;;;;;2.83;2.63;;;;;;;;;;5029931;28;20439;-71
2022/06/15 03:58:07;;;;;;;8.43;3.13;;;;;;;;;;5030087;28;20479;-70
2022/06/15 04:00:33;;;;;;;7.17;3.20;;;;;;;;;;5030019;28;20978;-71
2022/06/15 04:02:59;;;;;;;3.13;3.03;;;;;;;;;;5029899;28;20439;-71
2022/06/15 04:05:34;;;;;;;6.93;3.13;;;;;;;;;;5026761;28;21471;-76
2022/06/15 04:10:45;;;;;;;4.33;3.83;;;;;;;;;;5029521;28;20943;-71
2022/06/15 04:13:12;;;;;;;3.37;3.17;;;;;;;;;;5028239;28;20451;-71
2022/06/15 04:15:38;;;;;;;3.80;3.50;;;;;;;;;;5027688;28;20452;-71
2022/06/15 04:18:04;;;;;;;4.10;3.80;;;;;;;;;;5029613;28;20501;-71
2022/06/15 04:20:33;;;;;;;5.43;4.87;;;;;;;;;;5029318;28;20503;-71
2022/06/15 04:23:00;;;;;;;5.40;3.87;;;;;;;;;;5028915;28;20430;-71
2022/06/15 04:25:27;;;;;;;4.67;3.77;;;;;;;;;;5029157;28;20423;-71
2022/06/15 04:27:53;;;;;;;3.80;3.60;;;;;;;;;;5029543;28;20430;-71
2022/06/15 04:30:19;;;;;;;3.83;3.63;;;;;;;;;;5028893;28;20416;-71
2022/06/15 04:32:45;;;;;;;3.83;2.63;;;;;;;;;;5027244;28;20435;-73
2022/06/15 04:35:11;;;;;;;3.90;3.53;;;;;;;;;;5028616;28;20575;-71
2022/06/15 04:37:37;;;;;;;6.50;3.60;;;;;;;;;;5029255;28;20510;-71
2022/06/15 04:40:04;;;;;;;3.80;3.40;;;;;;;;;;5029860;28;20477;-72
2022/06/15 04:42:30;;;;;;;3.20;2.93;;;;;;;;;;5029286;28;20431;-71
2022/06/15 04:44:56;;;;;;;3.33;2.93;;;;;;;;;;5028829;28;20420;-71
2022/06/15 04:47:22;;;;;;;4.07;3.87;;;;;;;;;;5025079;28;20526;-71
2022/06/15 04:49:48;;;;;;;5.23;4.90;;;;;;;;;;5028340;28;20466;-71
2022/06/15 04:52:14;;;;;;;7.53;6.83;;;;;;;;;;5028498;28;20506;-71
2022/06/15 04:54:40;;;;;;;5.00;4.60;;;;;;;;;;5028876;28;20530;-71
2022/06/15 04:57:07;;;;;;;6.70;4.77;;;;;;;;;;5028459;28;20475;-71
2022/06/15 04:59:33;;;;;;;4.03;3.93;;;;;;;;;;5029468;28;20442;-72
2022/06/15 05:01:59;;;;;;;5.13;4.63;;;;;;;;;;5028619;28;20407;-71
2022/06/15 05:04:28;;;;;;;4.60;4.33;;;;;;;;;;5028534;28;20463;-71
2022/06/15 05:06:54;;;;;;;6.43;3.90;;;;;;;;;;5028661;28;20493;-71
2022/06/15 05:09:20;;;;;;;4.93;4.63;;;;;;;;;;5026216;28;20447;-72
2022/06/15 05:11:46;;;;;;;4.30;4.10;;;;;;;;;;5026920;28;20435;-74
2022/06/15 05:14:12;;;;;;;4.03;3.60;;;;;;;;;;5027287;28;20431;-71
2022/06/15 05:16:39;;;;;;;3.30;3.20;;;;;;;;;;5028687;28;20443;-72
2022/06/15 05:19:05;;;;;;;3.63;3.43;;;;;;;;;;5029019;28;20439;-73
2022/06/15 05:21:31;;;;;;;3.00;2.87;;;;;;;;;;5029339;28;20836;-72
2022/06/15 05:23:58;;;;;;;3.83;3.30;;;;;;;;;;5027532;28;21014;-72
2022/06/15 05:26:27;;;;;;;5.07;3.70;;;;;;;;;;5029034;28;20419;-75
2022/06/15 05:28:53;;;;;;;3.03;2.57;;;;;;;;;;5029094;28;20927;-70
2022/06/15 05:31:21;;;;;;;3.43;3.23;;;;;;;;;;5028991;28;20430;-72
2022/06/15 05:33:53;;;;;;;3.23;3.03;;;;;;;;;;5028306;28;20438;-73
2022/06/15 05:36:20;;;;;;;3.00;2.70;;;;;;;;;;5026386;28;20431;-72
2022/06/15 05:38:46;;;;;;;2.60;2.50;;;;;;;;;;5028412;28;20475;-71
2022/06/15 05:41:11;;;;;;;3.63;2.30;;;;;;;;;;5028646;28;20503;-71
2022/06/15 05:43:43;;;;;;;4.37;2.40;;;;;;;;;;5028902;28;20430;-71
2022/06/15 05:46:30;;;;;;;3.37;2.53;;;;;;;;;;5028316;28;20415;-74
2022/06/15 05:48:56;;;;;;;2.53;2.33;;;;;;;;;;5027475;28;20431;-71
2022/06/15 05:51:22;;;;;;;4.80;2.87;;;;;;;;;;5027916;28;20462;-71
2022/06/15 05:53:48;;;;;;;2.73;2.60;;;;;;;;;;5027856;28;20462;-71
2022/06/15 05:56:14;;;;;;;2.70;2.70;;;;;;;;;;5028071;28;20439;-72
2022/06/15 05:58:41;;;;;;;2.60;2.50;;;;;;;;;;5028794;28;20486;-71
2022/06/15 06:01:08;;;;;;;2.30;2.20;;;;;;;;;;5028316;28;20514;-71
2022/06/15 06:03:34;;;;;;;2.70;2.50;;;;;;;;;;5026802;28;20981;-71
2022/06/15 06:06:00;;;;;;;3.17;2.97;;;;;;;;;;5026642;28;20792;-72
2022/06/15 06:08:26;;;;;;;2.97;2.77;;;;;;;;;;5032010;28;20508;-72
2022/06/15 06:10:52;;;;;;;3.17;3.07;;;;;;;;;;5031742;28;20939;-72
2022/06/15 06:13:18;;;;;;;14.53;3.60;;;;;;;;;;5031802;28;20431;-71
2022/06/15 06:15:44;;;;;;;6.83;5.20;;;;;;;;;;5031082;28;20481;-71
2022/06/15 06:18:09;;;;;;;6.60;4.47;;;;;;;;;;5031284;28;20529;-71
2022/06/15 06:20:35;;;;;;;5.67;5.27;;;;;;;;;;5032167;28;20431;-73
2022/06/15 06:23:01;;;;;;;6.97;6.03;;;;;;;;;;5030889;28;20439;-71
2022/06/15 06:25:29;;;;;;;6.20;5.53;;;;;;;;;;5030507;28;20454;-73
2022/06/15 06:27:55;;;;;;;5.40;4.90;;;;;;;;;;5031234;28;20475;-72
2022/06/15 06:30:21;;;;;;;9.30;5.70;;;;;;;;;;5031808;28;20455;-73
2022/06/15 06:32:48;;;;;;;5.27;4.63;;;;;;;;;;5031383;28;20435;-72
2022/06/15 06:35:14;;;;;;;8.27;4.40;;;;;;;;;;5030008;28;20426;-72
2022/06/15 06:37:40;;;;;;;10.57;4.73;;;;;;;;;;5029972;28;20551;-76
2022/06/15 06:40:07;;;;;;;6.60;4.07;;;;;;;;;;5029562;28;20427;-72
2022/06/15 06:42:33;;;;;;;9.00;4.23;;;;;;;;;;5031701;28;20443;-71
2022/06/15 06:44:59;;;;;;;5.10;3.93;;;;;;;;;;5030107;28;20856;-72
2022/06/15 06:47:25;;;;;;;4.60;4.40;;;;;;;;;;5031184;28;20442;-76
2022/06/15 06:49:51;;;;;;;7.23;3.70;;;;;;;;;;5030885;28;20439;-72
2022/06/15 06:52:16;;;;;;;4.40;3.50;;;;;;;;;;5031409;28;20506;-78
2022/06/15 06:54:42;;;;;;;3.97;3.57;;;;;;;;;;5031119;28;20427;-72
2022/06/15 06:57:08;;;;;;;3.77;3.63;;;;;;;;;;5031022;28;20482;-73
2022/06/15 06:59:34;;;;;;;3.10;2.90;;;;;;;;;;5030224;28;20854;-72
2022/06/15 07:02:00;;;;;;;3.10;2.97;;;;;;;;;;5030386;28;20427;-72
2022/06/15 07:04:26;;;;;;;5.40;2.80;;;;;;;;;;5028907;28;20792;-72
2022/06/15 07:06:55;;;;;;;4.03;3.63;;;;;;;;;;5029720;28;20439;-78
2022/06/15 07:09:21;;;;;;;2.90;2.83;;;;;;;;;;5029230;28;20267;-72
2022/06/15 07:11:47;;;;;;;3.10;2.57;;;;;;;;;;5030865;28;20522;-71
2022/06/15 07:14:14;;;;;;;5.50;3.30;;;;;;;;;;5030327;28;21294;-77
2022/06/15 07:16:41;;;;;;;4.50;3.57;;;;;;;;;;5029998;28;20435;-71
2022/06/15 07:19:07;;;;;;;2.90;2.80;;;;;;;;;;5029257;28;20526;-72
2022/06/15 07:21:33;;;;;;;3.23;2.50;;;;;;;;;;5030027;28;20427;-73
2022/06/15 07:24:00;;;;;;;3.60;3.30;;;;;;;;;;5030324;28;20443;-71
2022/06/15 07:26:28;;;;;;;4.77;2.23;;;;;;;;;;5030066;28;20765;-71
2022/06/15 07:28:54;;;;;;;2.70;2.50;;;;;;;;;;5030048;28;20427;-71
2022/06/15 07:31:25;;;;;;;4.47;2.90;;;;;;;;;;5030656;28;20522;-71
2022/06/15 07:33:51;;;;;;;3.60;2.40;;;;;;;;;;5029463;28;20920;-72
2022/06/15 07:36:17;;;;;;;4.37;2.97;;;;;;;;;;5030519;28;20439;-72
2022/06/15 07:38:43;;;;;;;4.00;2.60;;;;;;;;;;5030925;28;20521;-71
2022/06/15 07:41:09;;;;;;;4.80;3.20;;;;;;;;;;5030635;28;20463;-71
2022/06/15 07:43:35;;;;;;;6.53;2.93;;;;;;;;;;5030751;28;20529;-71
2022/06/15 07:46:02;;;;;;;2.93;2.73;;;;;;;;;;5030090;28;20434;-71
2022/06/15 07:51:26;;;;;;;2.90;2.60;;;;;;;;;;5030229;28;20842;-71
2022/06/15 07:53:52;;;;;;;3.70;2.97;;;;;;;;;;5030087;28;21773;-72
2022/06/15 07:56:18;;;;;;;5.00;4.50;;;;;;;;;;5028972;28;20469;-71
2022/06/15 07:58:44;;;;;;;4.53;2.60;;;;;;;;;;5029492;28;20483;-72
2022/06/15 08:01:10;;;;;;;3.80;2.70;;;;;;;;;;5029541;28;20566;-71
2022/06/15 08:03:37;;;;;;;10.30;3.40;;;;;;;;;;5029606;28;20543;-71
2022/06/15 08:06:04;;;;;;;3.00;2.67;;;;;;;;;;5029669;28;20446;-72
2022/06/15 08:08:31;;;;;;;2.67;2.57;;;;;;;;;;5028897;28;20420;-71
2022/06/15 08:10:56;;;;;;;5.53;3.40;;;;;;;;;;5030111;28;20419;-71
2022/06/15 08:13:23;;;;;;;5.20;3.33;;;;;;;;;;5030152;28;20422;-71
2022/06/15 08:15:50;;;;;;;4.50;3.30;;;;;;;;;;5029835;28;20439;-71
2022/06/15 08:18:18;;;;;;;3.33;3.03;;;;;;;;;;5028202;28;20529;-71
2022/06/15 08:20:50;;;;;;;3.50;3.40;;;;;;;;;;5028980;28;20489;-71
2022/06/15 08:23:18;;;;;;;4.00;3.10;;;;;;;;;;5029509;28;20450;-72
2022/06/15 08:25:46;;;;;;;7.73;3.27;;;;;;;;;;5029723;28;20428;-71
2022/06/15 08:28:14;;;;;;;5.80;3.13;;;;;;;;;;5029613;28;20439;-71
2022/06/15 08:30:40;;;;;;;7.47;3.27;;;;;;;;;;5028605;28;20423;-71
2022/06/15 08:33:07;;;;;;;7.60;3.20;;;;;;;;;;5029276;28;20919;-71
2022/06/15 08:35:36;;;;;;;6.00;3.47;;;;;;;;;;5028351;28;20441;-71
2022/06/15 08:38:02;;;;;;;2.77;2.77;;;;;;;;;;5029250;28;20482;-71
2022/06/15 08:40:32;;;;;;;4.40;3.07;;;;;;;;;;5029410;28;20423;-71
2022/06/15 08:43:01;;;;;;;8.80;3.50;;;;;;;;;;5029312;28;20431;-71
2022/06/15 08:45:30;;;;;;;11.13;4.20;;;;;;;;;;5028690;28;20430;-72
2022/06/15 08:48:08;;;;;;;3.23;3.10;;;;;;;;;;5028284;28;20450;-71
2022/06/15 08:50:36;;;;;;;6.47;2.80;;;;;;;;;;5028406;28;20926;-71
2022/06/15 08:53:11;;;;;;;4.30;3.30;;;;;;;;;;5028798;28;20941;-71
2022/06/15 08:55:48;;;;;;;5.00;2.43;;;;;;;;;;5027107;28;20446;-71
2022/06/15 08:58:33;;;;;;;5.43;3.60;;;;;;;;;;5028217;28;20893;-71
2022/06/15 09:01:05;;;;;;;2.60;2.50;;;;;;;;;;5028893;28;20434;-73
2022/06/15 09:03:40;;;;;;;3.77;3.43;;;;;;;;;;5029243;28;20432;-73
2022/06/15 09:06:24;;;;;;;5.43;3.90;;;;;;;;;;5022117;28;20543;-71
2022/06/15 09:09:05;;;;;;;2.57;2.47;;;;;;;;;;5026436;28;20445;-72
2022/06/15 09:11:43;;;;;;;3.53;3.00;;;;;;;;;;5027431;28;20966;-71
2022/06/15 09:14:33;;;;;;;3.23;2.27;;;;;;;;;;5027515;28;20789;-71
2022/06/15 09:17:06;;;;;;;3.00;2.90;;;;;;;;;;5029024;28;20475;-72
2022/06/15 09:19:36;;;;;;;4.23;3.83;;;;;;;;;;5027656;28;20939;-71
2022/06/15 09:22:04;;;;;;;5.20;3.50;;;;;;;;;;5028623;28;20435;-71
2022/06/15 09:24:41;;;;;;;3.53;2.40;;;;;;;;;;5027957;28;20451;-71
2022/06/15 09:27:12;;;;;;;6.93;2.83;;;;;;;;;;5028657;28;20462;-71
2022/06/15 09:29:52;;;;;;;3.60;3.30;;;;;;;;;;5029272;28;20855;-71
2022/06/15 09:32:23;;;;;;;3.63;2.90;;;;;;;;;;5028509;28;20455;-71
2022/06/15 09:34:55;;;;;;;2.70;2.60;;;;;;;;;;5028395;28;20447;-71
2022/06/15 09:37:23;;;;;;;4.53;3.03;;;;;;;;;;5027573;28;20477;-71
2022/06/15 09:39:49;;;;;;;4.30;2.00;;;;;;;;;;5028564;28;21082;-72
2022/06/15 09:42:21;;;;;;;2.43;2.43;;;;;;;;;;5031308;28;20438;-71
2022/06/15 09:44:59;;;;;;;2.13;2.03;;;;;;;;;;5031972;28;20716;-71
2022/06/15 09:47:32;;;;;;;9.23;2.10;;;;;;;;;;5031089;28;20439;-72
2022/06/15 09:50:16;;;;;;;2.53;2.33;;;;;;;;;;5032202;28;20434;-73
2022/06/15 09:53:01;;;;;;;6.50;2.23;;;;;;;;;;5032679;28;20544;-71
2022/06/15 09:55:39;;;;;;;3.77;3.40;;;;;;;;;;5032414;28;20773;-77
2022/06/15 09:58:06;;;;;;;2.57;2.50;;;;;;;;;;5030697;28;20495;-72
2022/06/15 10:00:32;;;;;;;2.40;2.30;;;;;;;;;;5032166;28;20431;-71
2022/06/15 10:03:03;;;;;;;3.70;2.37;;;;;;;;;;5032475;28;20442;-71
2022/06/15 10:05:37;;;;;;;3.50;3.03;;;;;;;;;;5032773;28;20488;-71
2022/06/15 10:08:06;;;;;;;3.23;2.00;;;;;;;;;;5030123;28;20495;-72
2022/06/15 10:10:40;;;;;;;3.00;2.80;;;;;;;;;;5029368;28;20445;-71
2022/06/15 10:13:26;;;;;;;2.00;1.90;;;;;;;;;;5032439;28;20427;-71
2022/06/15 10:16:00;;;;;;;2.10;2.00;;;;;;;;;;5031631;28;20489;-72
2022/06/15 10:18:49;;;;;;;3.13;2.70;;;;;;;;;;5029288;28;20815;-71
2022/06/15 10:21:15;;;;;;;2.20;2.00;;;;;;;;;;5032044;28;20427;-71
2022/06/15 10:23:53;;;;;;;2.10;2.00;;;;;;;;;;5031247;28;20481;-71
2022/06/15 10:26:43;;;;;;;1.90;1.80;;;;;;;;;;5031358;28;20454;-71
2022/06/15 10:29:15;;;;;;;1.63;1.40;;;;;;;;;;5016569;28;20922;-71
2022/06/15 10:31:42;;;;;;;7.93;2.33;;;;;;;;;;5031486;28;20490;-71
2022/06/15 10:34:21;;;;;;;2.17;2.07;;;;;;;;;;5030739;28;20432;-71
2022/06/15 10:36:52;;;;;;;2.20;2.17;;;;;;;;;;5031222;28;20573;-72
2022/06/15 10:39:23;;;;;;;7.70;1.90;;;;;;;;;;5031202;28;20936;-71
2022/06/15 10:41:50;;;;;;;2.87;1.43;;;;;;;;;;5029395;28;20899;-72
2022/06/15 10:44:36;;;;;;;1.40;1.40;;;;;;;;;;5029673;28;20497;-71
2022/06/15 10:47:04;;;;;;;1.60;1.60;;;;;;;;;;5030956;28;20431;-75
2022/06/15 10:49:33;;;;;;;3.90;1.87;;;;;;;;;;5030457;28;21017;-71
2022/06/15 10:51:59;;;;;;;2.03;1.80;;;;;;;;;;5030659;28;20490;-71
2022/06/15 10:54:33;;;;;;;1.40;1.40;;;;;;;;;;5031215;28;20530;-71
2022/06/15 11:03:01;;;;;;;1.67;1.20;;;;;;;;;;5022160;28;20423;-71
2022/06/15 11:05:28;;;;;;;1.67;1.67;;;;;;;;;;5032438;28;20466;-71
2022/06/15 11:08:03;;;;;;;1.23;1.23;;;;;;;;;;5030741;28;20496;-71
2022/06/15 11:10:29;;;;;;;2.00;1.90;;;;;;;;;;5030226;28;20485;-71
2022/06/15 11:13:06;;;;;;;1.73;1.73;;;;;;;;;;5029509;28;20439;-71
2022/06/15 11:18:33;;;;;;;3.03;1.63;;;;;;;;;;5030188;28;20521;-71
2022/06/15 11:21:13;;;;;;;1.47;1.37;;;;;;;;;;5030416;28;20785;-71
2022/06/15 11:23:58;;;;;;;1.70;1.70;;;;;;;;;;5030293;28;20513;-72
2022/06/15 11:29:21;;;;;;;3.73;1.67;;;;;;;;;;5029875;28;20431;-72
2022/06/15 11:31:48;;;;;;;12.53;7.80;;;;;;;;;;5030497;28;20974;-71
2022/06/15 11:34:19;;;;;;;2.10;2.00;;;;;;;;;;5029645;28;20442;-71
2022/06/15 11:36:53;;;;;;;2.30;1.80;;;;;;;;;;5030143;28;20811;-71
2022/06/15 11:39:22;;;;;;;1.40;1.40;;;;;;;;;;5028186;28;20438;-71
2022/06/15 11:41:53;;;;;;;5.03;1.67;;;;;;;;;;5029434;28;20500;-71
2022/06/15 11:44:33;;;;;;;1.80;1.70;;;;;;;;;;5030322;28;20447;-71
2022/06/15 11:47:09;;;;;;;1.60;1.50;;;;;;;;;;5029738;28;20431;-71
2022/06/15 11:49:38;;;;;;;1.60;1.60;;;;;;;;;;5030558;28;20941;-71
2022/06/15 11:52:23;;;;;;;3.27;1.90;;;;;;;;;;5027997;28;20470;-71
2022/06/15 11:54:57;;;;;;;3.80;1.60;;;;;;;;;;5030448;28;21029;-71
2022/06/15 11:57:42;;;;;;;1.70;1.60;;;;;;;;;;5029694;28;21010;-73
2022/06/15 12:00:30;;;;;;;1.43;1.43;;;;;;;;;;5028883;28;20511;-71
2022/06/15 12:02:57;;;;;;;3.83;1.40;;;;;;;;;;5028337;28;20555;-71
2022/06/15 12:05:31;;;;;;;8.13;2.40;;;;;;;;;;5029415;28;20851;-71
2022/06/15 12:08:15;;;;;;;1.77;1.77;;;;;;;;;;5029345;28;20783;-71
2022/06/15 12:10:48;;;;;;;1.60;1.50;;;;;;;;;;5029771;28;20424;-73
2022/06/15 12:13:23;;;;;;;2.10;1.83;;;;;;;;;;5029636;28;20990;-71
2022/06/15 12:16:09;;;;;;;1.83;1.83;;;;;;;;;;5030207;28;20460;-70
2022/06/15 12:18:41;;;;;;;2.83;1.77;;;;;;;;;;5027402;28;20846;-71
2022/06/15 12:21:07;;;;;;;12.40;1.90;;;;;;;;;;5029621;28;20415;-71
2022/06/15 12:23:33;;;;;;;1.90;1.80;;;;;;;;;;5030333;28;20437;-71
2022/06/15 12:26:08;;;;;;;1.30;1.30;;;;;;;;;;5030046;28;20412;-71
2022/06/15 12:28:58;;;;;;;3.93;1.83;;;;;;;;;;5029656;28;20927;-71
2022/06/15 12:31:34;;;;;;;3.80;2.00;;;;;;;;;;5044075;28;20526;-71
2022/06/15 12:34:08;;;;;;;1.80;1.70;;;;;;;;;;5029224;28;21021;-71
2022/06/15 12:36:41;;;;;;;1.60;1.60;;;;;;;;;;5029844;28;20445;-71
2022/06/15 12:39:34;;;;;;;2.43;1.80;;;;;;;;;;5029083;28;20455;-71
2022/06/15 12:42:14;;;;;;;2.97;1.60;;;;;;;;;;5021954;28;20436;-71
2022/06/15 12:44:46;;;;;;;2.17;1.67;;;;;;;;;;5029964;28;20863;-71
2022/06/15 12:47:14;;;;;;;1.90;1.90;;;;;;;;;;5028931;28;20463;-71
2022/06/15 12:49:57;;;;;;;3.07;2.30;;;;;;;;;;5029015;28;20493;-71
2022/06/15 12:52:44;;;;;;;1.77;1.60;;;;;;;;;;5029091;28;20478;-71
2022/06/15 12:55:29;;;;;;;4.10;1.90;;;;;;;;;;5029607;28;20489;-71
2022/06/15 12:57:55;;;;;;;2.37;2.27;;;;;;;;;;5028632;28;20884;-71
2022/06/15 13:00:24;;;;;;;5.10;2.20;;;;;;;;;;5029131;28;20470;-71
2022/06/15 13:03:08;;;;;;;3.03;1.80;;;;;;;;;;5028489;28;20435;-72
2022/06/15 13:05:38;;;;;;;1.70;1.70;;;;;;;;;;5029148;28;20876;-71
2022/06/15 13:08:19;;;;;;;2.00;1.90;;;;;;;;;;5028615;28;20986;-71
2022/06/15 13:10:48;;;;;;;3.57;2.40;;;;;;;;;;5028097;28;20423;-71
2022/06/15 13:13:23;;;;;;;3.90;1.90;;;;;;;;;;5029291;28;20484;-70
2022/06/15 13:16:00;;;;;;;1.80;1.80;;;;;;;;;;5028571;28;20883;-71
2022/06/15 13:18:42;;;;;;;2.00;1.93;;;;;;;;;;5032029;28;20485;-71
2022/06/15 13:21:08;;;;;;;1.47;1.47;;;;;;;;;;5032983;28;20538;-71
2022/06/15 13:23:35;;;;;;;9.73;1.77;;;;;;;;;;5031510;28;20439;-71
2022/06/15 13:26:05;;;;;;;6.73;2.37;;;;;;;;;;5033592;28;20506;-71
2022/06/15 13:28:33;;;;;;;1.50;1.43;;;;;;;;;;5032205;28;20424;-71
2022/06/15 13:31:02;;;;;;;2.30;2.20;;;;;;;;;;5032505;28;20430;-71
2022/06/15 13:33:48;;;;;;;7.33;1.70;;;;;;;;;;5031183;28;20435;-71
2022/06/15 13:36:14;;;;;;;3.70;1.63;;;;;;;;;;5031852;28;20870;-71
2022/06/15 13:38:41;;;;;;;1.47;1.47;;;;;;;;;;5031115;28;20467;-71
2022/06/15 13:41:11;;;;;;;1.80;1.73;;;;;;;;;;5033108;28;20420;-72
2022/06/15 13:43:43;;;;;;;9.87;2.83;;;;;;;;;;5031869;28;20776;-71
2022/06/15 13:46:27;;;;;;;1.70;1.70;;;;;;;;;;5033162;28;20495;-71
2022/06/15 13:49:14;;;;;;;2.00;1.63;;;;;;;;;;5031123;28;20431;-71
2022/06/15 13:51:52;;;;;;;7.30;1.83;;;;;;;;;;5032973;28;20553;-72
2022/06/15 13:54:18;;;;;;;1.30;1.30;;;;;;;;;;5032935;28;20438;-78
2022/06/15 13:57:12;;;;;;;2.63;1.40;;;;;;;;;;5032797;28;20431;-71
2022/06/15 13:59:43;;;;;;;1.63;1.63;;;;;;;;;;5032038;28;20442;-72
2022/06/15 14:02:28;;;;;;;1.47;1.43;;;;;;;;;;5031369;28;20454;-71
2022/06/15 14:05:10;;;;;;;1.60;1.60;;;;;;;;;;5030990;28;20947;-71
2022/06/15 14:07:37;;;;;;;3.30;1.50;;;;;;;;;;5031971;28;20435;-71
2022/06/15 14:10:08;;;;;;;1.83;1.73;;;;;;;;;;5031991;28;20427;-71
2022/06/15 14:12:49;;;;;;;2.03;1.23;;;;;;;;;;5032751;28;20512;-71
2022/06/15 14:15:18;;;;;;;2.07;1.87;;;;;;;;;;5047507;28;20863;-71
2022/06/15 14:17:44;;;;;;;1.70;1.70;;;;;;;;;;5030375;28;20579;-71
2022/06/15 14:20:12;;;;;;;4.83;1.73;;;;;;;;;;5032337;28;21018;-71
2022/06/15 14:22:55;;;;;;;1.27;1.27;;;;;;;;;;5032217;28;20254;-71
2022/06/15 14:25:21;;;;;;;1.30;1.27;;;;;;;;;;5032586;28;20442;-71
2022/06/15 14:27:58;;;;;;;2.63;2.53;;;;;;;;;;5030584;28;20451;-71
2022/06/15 14:30:29;;;;;;;1.50;1.50;;;;;;;;;;5031026;28;20412;-73
2022/06/15 14:32:57;;;;;;;2.90;1.57;;;;;;;;;;5031443;28;20449;-71
2022/06/15 14:35:23;;;;;;;1.83;1.73;;;;;;;;;;5032263;28;20423;-71
2022/06/15 14:37:50;;;;;;;1.70;1.60;;;;;;;;;;5030423;28;20978;-71
2022/06/15 14:40:27;;;;;;;1.73;1.63;;;;;;;;;;5031950;28;20943;-71
2022/06/15 14:42:57;;;;;;;7.30;2.00;;;;;;;;;;5031511;28;20580;-71
2022/06/15 14:45:25;;;;;;;1.50;1.50;;;;;;;;;;5031920;28;20512;-71
2022/06/15 14:47:53;;;;;;;2.73;1.87;;;;;;;;;;5030232;28;20467;-71
2022/06/15 14:50:19;;;;;;;1.73;1.73;;;;;;;;;;5031633;28;20428;-71
2022/06/15 14:52:44;;;;;;;7.60;1.80;;;;;;;;;;5031437;28;20498;-72
2022/06/15 14:55:21;;;;;;;1.27;1.27;;;;;;;;;;5031145;28;20443;-71
2022/06/15 14:57:47;;;;;;;1.20;1.20;;;;;;;;;;5031298;28;20544;-71
2022/06/15 15:00:23;;;;;;;2.53;1.73;;;;;;;;;;5031213;28;20826;-71
2022/06/15 15:02:50;;;;;;;4.63;1.80;;;;;;;;;;5031125;28;20435;-71
2022/06/15 15:05:17;;;;;;;1.90;1.80;;;;;;;;;;5030306;28;20427;-71
2022/06/15 15:10:30;;;;;;;15.13;1.93;;;;;;;;;;5031539;28;21203;-71
2022/06/15 15:13:13;;;;;;;1.50;1.50;;;;;;;;;;5030752;28;20467;-71
2022/06/15 15:15:43;;;;;;;3.50;1.50;;;;;;;;;;5031783;28;20419;-72
2022/06/15 15:18:10;;;;;;;1.70;1.60;;;;;;;;;;5030493;28;20544;-71
2022/06/15 15:20:39;;;;;;;2.03;1.83;;;;;;;;;;5030945;28;20641;-71
2022/06/15 15:23:05;;;;;;;1.30;1.30;;;;;;;;;;5030279;28;20440;-71